Observations for CHRISTCHURCH IN, New Zealand (NZCH)

NZCH 202230Z AUTO 16008KT 140V200 9999 VCSH OVC038/// 17/11 Q1021 NOSIG 
NZCH 202200Z AUTO 17007KT 140V210 9999 FEW027/// BKN037/// OVC044/// 17/11 Q1021 NOSIG  
NZCH 202130Z AUTO 18005KT 130V210 9999 FEW026/// BKN040/// BKN049/// 17/11 Q1021 NOSIG  
NZCH 202100Z AUTO 24003KT 9999 BKN040/// OVC050/// 17/10 Q1021 NOSIG
NZCH 202030Z AUTO 28003KT 9999 BKN044/// BKN070/// OVC090/// 16/10 Q1021 NOSIG  
NZCH 202000Z AUTO 34004KT 300V020 9999 FEW044/// OVC080/// 15/10 Q1021 NOSIG
NZCH 201930Z AUTO 31003KT 9999 SCT080/// BKN090/// 15/10 Q1021 NOSIG
NZCH 201900Z AUTO 27002KT 9999 OVC041/// 14/11 Q1021 NOSIG  
NZCH 201830Z AUTO 22003KT 9999 OVC040/// 13/10 Q1021 NOSIG  
NZCH 201800Z AUTO 25002KT 9999 OVC041/// 13/10 Q1020 NOSIG  
NZCH 201730Z AUTO 24003KT 9999 OVC043/// 12/10 Q1020 NOSIG  
NZCH 201700Z AUTO 31001KT 9999 OVC042/// 12/10 Q1019 NOSIG  
NZCH 201630Z AUTO 31001KT 9999 OVC042/// 13/10 Q1019 NOSIG  
NZCH 201600Z AUTO 00000KT 9999 OVC043/// 13/10 Q1019 NOSIG  
NZCH 201530Z AUTO 28001KT 9999 OVC043/// 13/10 Q1019 NOSIG  
NZCH 201500Z AUTO 24002KT 9999 OVC044/// 13/10 Q1020 NOSIG  
NZCH 201430Z AUTO 20003KT 9999 OVC041/// 13/10 Q1020 NOSIG  
NZCH 201400Z AUTO 20002KT 9999 OVC042/// 13/10 Q1020 NOSIG  
NZCH 201330Z AUTO 20002KT 9999 OVC044/// 13/10 Q1020 NOSIG  
NZCH 201300Z AUTO 23001KT 9999 OVC042/// 13/10 Q1020 NOSIG  
NZCH 201230Z AUTO 22003KT 9999 OVC041/// 13/10 Q1021 NOSIG  
NZCH 201200Z AUTO 28002KT 9999 SCT018/// OVC040/// 13/10 Q1021 NOSIG
NZCH 201130Z AUTO 23004KT 9999 OVC019/// 14/10 Q1021 NOSIG  
NZCH 201100Z AUTO 24003KT 9999 OVC019/// 14/10 Q1021 NOSIG  
NZCH 201030Z AUTO 22004KT 9999 OVC022/// 14/10 Q1021 NOSIG  
NZCH 201000Z AUTO 24003KT 9999 SCT025/// BKN033/// OVC044/// 14/10 Q1021 NOSIG  
NZCH 200930Z AUTO 24003KT 9999 BKN033/// 14/10 Q1021 NOSIG  
NZCH 200900Z AUTO 24003KT 9999 BKN033/// OVC049/// 14/10 Q1021 NOSIG
NZCH 200830Z AUTO 22003KT 9999 OVC032/// 14/10 Q1021 NOSIG  
NZCH 200800Z AUTO 18005KT 160V220 9999 SCT024/// BKN031/// BKN070/// 14/09 Q1020 NOSIG  
NZCH 200730Z AUTO 17006KT 9999 OVC026/// 14/09 Q1020 NOSIG  
NZCH 200700Z AUTO 18006KT 9999 SCT029/// BKN065/// 15/09 Q1020 NOSIG
NZCH 200630Z AUTO 19009KT 9999 OVC070/// 15/09 Q1020 NOSIG  
NZCH 200600Z AUTO 20010KT 9999 BKN070/// 15/08 Q1019 NOSIG  
NZCH 200530Z AUTO 19011KT 9999 SCT075/// BKN100/// 16/09 Q1019 NOSIG
NZCH 200500Z AUTO 20011KT 170V230 9999 BKN095/// 17/09 Q1019 NOSIG  
NZCH 200430Z AUTO 18010KT 9999 FEW036/// SCT070/// 18/09 Q1019 NOSIG
NZCH 200400Z AUTO 19007KT 140V250 9999 NCD 18/10 Q1019 NOSIG
NZCH 200330Z AUTO 19008KT 150V220 9999 NCD 19/10 Q1019 NOSIG
NZCH 200300Z AUTO 17007KT 130V230 9999 FEW080/// 19/11 Q1019 NOSIG  
NZCH 200230Z AUTO 18006KT 140V220 9999 FEW065/// BKN080/// 18/09 Q1019 NOSIG
NZCH 200200Z AUTO 20008KT 170V230 9999 FEW028/// BKN060/// 18/10 Q1019 NOSIG
NZCH 200130Z AUTO 10005KT 030V200 9999 BKN028/// BKN075/// 18/11 Q1020 NOSIG
NZCH 200100Z AUTO 23003KT 9999 FEW029/// SCT060/// BKN070/// 19/10 Q1020 NOSIG  
NZCH 200030Z AUTO 22003KT 9999 SCT027/// BKN060/// 18/10 Q1020 NOSIG
NZCH 200000Z AUTO 18007KT 120V230 9999 BKN026/// BKN065/// 17/10 Q1020 NOSIG
NZCH 192330Z AUTO 20006KT 140V260 9999 OVC025/// 17/10 Q1020 NOSIG  
NZCH 192300Z AUTO 18006KT 140V230 9999 OVC021/// 16/10 Q1020 NOSIG  
NZCH 192230Z AUTO 15004KT 070V250 9999 OVC019/// 16/10 Q1020 NOSIG  
NZCH 192200Z AUTO 20003KT 9999 OVC019/// 15/10 Q1020 NOSIG